createdAt,value
2023-02-23T00:01:55.252Z,8.03
2023-02-23T00:04:24.623Z,7.98
2023-02-23T00:06:53.487Z,7.98
2023-02-23T00:09:26.116Z,8.05
2023-02-23T00:11:55.960Z,8.21
2023-02-23T00:14:27.901Z,8.29
2023-02-23T00:16:56.477Z,8.21
2023-02-23T00:19:25.130Z,8.08
2023-02-23T00:21:53.728Z,7.66
2023-02-23T00:24:26.821Z,7.70
2023-02-23T00:26:54.814Z,8.03
2023-02-23T00:29:24.448Z,8.11
2023-02-23T00:31:53.444Z,7.99
2023-02-23T00:34:23.558Z,7.80
2023-02-23T00:36:54.207Z,7.76
2023-02-23T00:39:26.734Z,7.56
2023-02-23T00:41:55.829Z,7.72
2023-02-23T00:44:25.419Z,7.57
2023-02-23T00:46:53.939Z,8.12
2023-02-23T00:49:23.416Z,7.46
2023-02-23T00:51:52.240Z,7.71
2023-02-23T00:54:21.580Z,7.41
2023-02-23T00:56:51.390Z,7.66
2023-02-23T00:59:20.191Z,7.54
2023-02-23T01:01:48.159Z,7.59
2023-02-23T01:04:16.733Z,7.86
2023-02-23T01:06:46.220Z,7.59
2023-02-23T01:09:27.185Z,7.90
2023-02-23T01:11:57.770Z,8.26
2023-02-23T01:14:26.244Z,8.12
2023-02-23T01:16:54.247Z,7.98
2023-02-23T01:19:22.500Z,7.90
2023-02-23T01:21:50.544Z,7.82
2023-02-23T01:24:18.981Z,7.73
2023-02-23T01:26:47.350Z,7.55
2023-02-23T01:29:18.744Z,7.31
2023-02-23T01:31:51.114Z,7.69
2023-02-23T01:34:21.697Z,7.79
2023-02-23T01:36:49.942Z,7.70
2023-02-23T01:39:20.678Z,7.65
2023-02-23T01:41:48.741Z,7.64
2023-02-23T01:44:50.422Z,7.84
2023-02-23T01:47:20.868Z,7.48
2023-02-23T01:49:50.987Z,7.58
2023-02-23T01:52:20.781Z,7.46
2023-02-23T01:54:52.910Z,7.82
2023-02-23T01:57:25.204Z,7.58
2023-02-23T01:59:54.762Z,7.43
2023-02-23T02:02:33.597Z,7.47
2023-02-23T02:05:05.159Z,7.19
2023-02-23T02:07:36.188Z,7.29
2023-02-23T02:10:33.700Z,7.18
2023-02-23T02:13:05.853Z,7.58
2023-02-23T02:15:39.182Z,7.61
2023-02-23T02:18:12.337Z,7.46
2023-02-23T02:21:18.808Z,7.44
2023-02-23T02:24:08.196Z,7.65
2023-02-23T02:26:47.281Z,7.51
2023-02-23T02:29:44.832Z,7.60
2023-02-23T02:32:57.059Z,7.62
2023-02-23T02:35:50.577Z,7.63
2023-02-23T02:38:31.650Z,7.75
2023-02-23T02:41:05.522Z,7.68
2023-02-23T02:43:43.699Z,7.57
2023-02-23T02:46:17.450Z,7.34
2023-02-23T02:48:52.515Z,7.42
2023-02-23T02:51:25.196Z,7.64
2023-02-23T02:54:07.169Z,7.43
2023-02-23T02:56:40.384Z,7.25
2023-02-23T02:59:31.205Z,7.44
2023-02-23T03:02:17.553Z,7.41
2023-02-23T03:05:03.403Z,7.35
2023-02-23T03:07:57.103Z,7.48
2023-02-23T03:10:51.156Z,7.63
2023-02-23T03:13:49.578Z,7.40
2023-02-23T03:16:44.088Z,7.60
2023-02-23T03:19:35.509Z,7.48
2023-02-23T03:22:32.293Z,7.15
2023-02-23T03:25:24.456Z,7.48
2023-02-23T03:28:15.478Z,7.81
2023-02-23T03:31:10.096Z,7.87
2023-02-23T03:34:03.437Z,7.07
2023-02-23T03:36:54.509Z,7.52
2023-02-23T03:39:46.520Z,7.16
2023-02-23T03:42:38.033Z,7.46
2023-02-23T03:45:30.494Z,7.46
2023-02-23T03:48:18.278Z,7.28
2023-02-23T03:51:09.463Z,7.16
2023-02-23T03:54:03.579Z,7.25
2023-02-23T03:56:52.409Z,7.31
2023-02-23T03:59:42.032Z,7.50
2023-02-23T04:02:31.272Z,7.54
2023-02-23T04:05:20.615Z,7.14
2023-02-23T04:08:10.916Z,7.19
2023-02-23T04:11:12.727Z,7.31
2023-02-23T04:13:41.342Z,7.36
2023-02-23T04:16:10.422Z,7.43
2023-02-23T04:18:40.647Z,7.43
2023-02-23T04:21:09.100Z,7.02
2023-02-23T04:23:40.617Z,7.00
2023-02-23T04:26:08.511Z,6.95
2023-02-23T04:28:36.517Z,7.13
2023-02-23T04:31:04.518Z,7.21
2023-02-23T04:33:32.533Z,6.92
2023-02-23T04:36:01.771Z,7.00
2023-02-23T04:38:29.608Z,6.84
2023-02-23T04:40:57.435Z,7.20
2023-02-23T04:43:25.273Z,6.95
2023-02-23T04:45:53.357Z,7.02
2023-02-23T04:48:21.245Z,6.76
2023-02-23T04:50:52.700Z,6.78
2023-02-23T04:53:21.899Z,6.91
2023-02-23T04:55:49.832Z,6.70
2023-02-23T04:58:17.784Z,6.98
2023-02-23T05:00:45.646Z,7.07
2023-02-23T05:03:13.824Z,7.32
2023-02-23T05:05:41.691Z,7.30
2023-02-23T05:08:09.598Z,6.92
2023-02-23T05:10:40.383Z,6.85
2023-02-23T05:13:08.493Z,6.61
2023-02-23T05:15:37.127Z,7.04
2023-02-23T05:18:05.033Z,6.76
2023-02-23T05:20:32.923Z,7.13
2023-02-23T05:23:00.863Z,7.21
2023-02-23T05:25:28.723Z,7.00
2023-02-23T05:27:57.951Z,7.13
2023-02-23T05:30:25.935Z,6.80
2023-02-23T05:32:53.786Z,6.62
2023-02-23T05:35:21.668Z,6.87
2023-02-23T05:37:49.565Z,6.90
2023-02-23T05:40:17.531Z,6.58
2023-02-23T05:42:45.401Z,6.66
2023-02-23T05:45:14.674Z,6.47
2023-02-23T05:47:42.604Z,6.65
2023-02-23T05:50:12.440Z,6.43
2023-02-23T05:52:41.981Z,6.35
2023-02-23T05:55:12.610Z,6.32
2023-02-23T05:57:41.170Z,6.47
2023-02-23T06:00:11.863Z,6.75
2023-02-23T06:02:41.759Z,6.52
2023-02-23T06:05:10.800Z,6.54
2023-02-23T06:07:38.840Z,6.72
2023-02-23T06:10:07.784Z,6.68
2023-02-23T06:12:36.432Z,6.07
2023-02-23T06:15:04.679Z,6.76
2023-02-23T06:17:32.534Z,6.63
2023-02-23T06:20:03.469Z,6.87
2023-02-23T06:22:31.400Z,6.80
2023-02-23T06:24:59.317Z,6.86
2023-02-23T06:27:27.256Z,6.89
2023-02-23T06:29:55.113Z,6.81
2023-02-23T06:32:23.066Z,6.69
2023-02-23T06:34:52.429Z,6.69
2023-02-23T06:37:21.654Z,6.53
2023-02-23T06:39:50.469Z,6.85
2023-02-23T06:42:18.487Z,6.85
2023-02-23T06:44:46.423Z,6.97
2023-02-23T06:47:14.337Z,6.55
2023-02-23T06:49:42.565Z,6.62
2023-02-23T06:52:13.525Z,6.37
2023-02-23T06:54:42.973Z,6.63
2023-02-23T06:57:11.186Z,6.72
2023-02-23T06:59:39.255Z,6.95
2023-02-23T07:02:07.451Z,6.85
2023-02-23T07:04:35.362Z,7.42
2023-02-23T07:07:03.641Z,7.30
2023-02-23T07:09:31.602Z,7.50
2023-02-23T07:12:00.967Z,7.49
2023-02-23T07:14:29.289Z,7.50
2023-02-23T07:16:57.121Z,7.27
2023-02-23T07:19:25.004Z,7.14
2023-02-23T07:21:53.569Z,7.18
2023-02-23T07:24:21.945Z,7.04
2023-02-23T07:26:50.188Z,7.64
2023-02-23T07:29:20.001Z,7.87
2023-02-23T07:31:50.055Z,7.49
2023-02-23T07:34:18.051Z,7.11
2023-02-23T07:36:45.924Z,7.71
2023-02-23T07:39:13.939Z,7.43
2023-02-23T07:41:41.801Z,7.98
2023-02-23T07:44:20.225Z,7.77
2023-02-23T07:46:48.181Z,7.75
2023-02-23T07:49:16.115Z,7.85
2023-02-23T07:51:44.002Z,8.14
2023-02-23T07:54:11.882Z,8.37
2023-02-23T07:56:40.552Z,8.05
2023-02-23T07:59:08.474Z,8.26
2023-02-23T08:01:37.729Z,8.57
2023-02-23T08:04:05.920Z,7.98
2023-02-23T08:06:33.808Z,8.24
2023-02-23T08:09:03.176Z,8.33
2023-02-23T08:11:31.123Z,8.44
2023-02-23T08:14:00.303Z,8.43
2023-02-23T08:16:28.713Z,8.31
2023-02-23T08:18:59.643Z,8.36
2023-02-23T08:21:29.276Z,8.55
2023-02-23T08:23:57.829Z,8.88
2023-02-23T08:26:26.057Z,9.11
2023-02-23T08:28:54.319Z,8.92
2023-02-23T08:31:27.530Z,8.68
2023-02-23T08:33:59.824Z,9.08
2023-02-23T08:36:27.777Z,8.71
2023-02-23T08:38:55.835Z,8.83
2023-02-23T08:41:24.053Z,8.92
2023-02-23T08:43:51.931Z,8.83
2023-02-23T08:46:20.581Z,8.59
2023-02-23T08:48:48.531Z,8.57
2023-02-23T08:51:18.235Z,9.00
2023-02-23T08:53:46.472Z,9.00
2023-02-23T08:56:15.321Z,8.94
2023-02-23T08:58:43.853Z,9.30
2023-02-23T09:01:18.476Z,9.21
2023-02-23T09:03:46.678Z,9.46
2023-02-23T09:06:20.052Z,9.57
2023-02-23T09:08:48.454Z,9.60
2023-02-23T09:11:16.489Z,9.67
2023-02-23T09:13:45.030Z,9.68
2023-02-23T09:16:13.044Z,9.60
2023-02-23T09:18:41.749Z,9.86
2023-02-23T09:21:18.925Z,9.91
2023-02-23T09:23:51.218Z,10.03
2023-02-23T09:26:19.980Z,10.08
2023-02-23T09:28:48.117Z,10.18
2023-02-23T09:31:18.423Z,10.37
2023-02-23T09:33:46.774Z,10.45
2023-02-23T09:36:17.278Z,10.12
2023-02-23T09:38:45.370Z,10.31
2023-02-23T09:41:46.974Z,10.63
2023-02-23T09:44:26.333Z,10.65
2023-02-23T09:47:04.204Z,10.71
2023-02-23T09:49:36.034Z,10.86
2023-02-23T09:52:06.006Z,11.01
2023-02-23T09:54:36.772Z,11.04
2023-02-23T09:57:13.452Z,11.23
2023-02-23T09:59:41.867Z,11.35
2023-02-23T10:02:21.738Z,11.53
2023-02-23T10:04:53.817Z,11.63
2023-02-23T10:07:26.926Z,12.02
2023-02-23T10:10:07.444Z,11.86
2023-02-23T10:12:46.941Z,12.09
2023-02-23T10:15:26.331Z,12.48
2023-02-23T10:18:04.164Z,12.53
2023-02-23T10:20:38.441Z,12.26
2023-02-23T10:23:13.109Z,12.97
2023-02-23T10:25:47.746Z,13.08
2023-02-23T10:28:21.533Z,13.36
2023-02-23T10:30:51.198Z,13.50
2023-02-23T10:33:25.256Z,12.87
2023-02-23T10:36:12.619Z,13.10
2023-02-23T10:38:41.097Z,13.55
2023-02-23T10:41:12.140Z,13.59
2023-02-23T10:43:43.359Z,13.86
2023-02-23T10:46:20.842Z,13.68
2023-02-23T10:48:50.350Z,13.93
2023-02-23T10:51:22.893Z,13.94
2023-02-23T10:53:52.855Z,13.98
2023-02-23T10:56:22.406Z,14.12
2023-02-23T10:58:53.081Z,14.50
2023-02-23T11:01:36.230Z,14.55
2023-02-23T11:04:14.577Z,14.63
2023-02-23T11:06:44.569Z,14.26
2023-02-23T11:09:41.878Z,14.65
2023-02-23T11:12:22.056Z,14.68
2023-02-23T11:14:52.827Z,14.56
2023-02-23T11:17:31.996Z,14.70
2023-02-23T11:20:02.723Z,15.02
2023-02-23T11:22:37.208Z,14.96
2023-02-23T11:25:16.649Z,15.30
2023-02-23T11:27:51.363Z,15.25
2023-02-23T11:30:24.567Z,15.27
2023-02-23T11:32:54.013Z,15.09
2023-02-23T11:35:31.858Z,14.69
2023-02-23T11:37:59.811Z,14.78
2023-02-23T11:40:29.567Z,15.12
2023-02-23T11:43:01.073Z,15.36
2023-02-23T11:45:34.537Z,15.47
2023-02-23T11:48:04.608Z,15.70
2023-02-23T11:50:35.559Z,15.66
2023-02-23T11:53:06.769Z,15.40
2023-02-23T11:55:37.832Z,15.26
2023-02-23T11:58:11.736Z,15.52
2023-02-23T12:00:41.419Z,15.63
2023-02-23T12:03:22.931Z,15.49
2023-02-23T12:05:53.240Z,15.58
2023-02-23T12:08:31.339Z,15.34
2023-02-23T12:11:01.701Z,15.63
2023-02-23T12:13:34.905Z,15.79
2023-02-23T12:16:11.416Z,15.74
2023-02-23T12:18:47.824Z,15.46
2023-02-23T12:21:25.220Z,15.67
2023-02-23T12:24:04.355Z,15.63
2023-02-23T12:26:35.090Z,15.56
2023-02-23T12:29:21.428Z,15.61
2023-02-23T12:31:55.390Z,15.61
2023-02-23T12:34:28.055Z,15.81
2023-02-23T12:37:00.483Z,15.66
2023-02-23T12:39:33.868Z,15.62
2023-02-23T12:42:05.608Z,15.87
2023-02-23T12:44:42.707Z,16.00
2023-02-23T12:47:22.596Z,15.97
2023-02-23T12:49:57.434Z,15.74
2023-02-23T12:52:30.517Z,15.30
2023-02-23T12:54:58.557Z,15.49
2023-02-23T12:57:38.690Z,15.48
2023-02-23T13:00:35.843Z,15.45
2023-02-23T13:03:28.364Z,15.52
2023-02-23T13:06:03.383Z,15.25
2023-02-23T13:08:42.854Z,15.42
2023-02-23T13:11:21.111Z,15.30
2023-02-23T13:13:55.625Z,15.30
2023-02-23T13:16:31.692Z,15.35
2023-02-23T13:19:16.418Z,15.32
2023-02-23T13:21:53.904Z,15.26
2023-02-23T13:24:25.269Z,15.31
2023-02-23T13:27:00.289Z,15.38
2023-02-23T13:29:35.215Z,15.33
2023-02-23T13:32:06.126Z,15.33
2023-02-23T13:34:40.790Z,14.99
2023-02-23T13:37:10.775Z,15.08
2023-02-23T13:39:56.722Z,14.70
2023-02-23T13:42:37.503Z,14.64
2023-02-23T13:45:35.393Z,14.75
2023-02-23T13:48:12.973Z,14.84
2023-02-23T13:50:49.169Z,14.93
2023-02-23T13:53:38.436Z,14.46
2023-02-23T13:56:08.598Z,14.57
2023-02-23T13:58:37.263Z,14.67
2023-02-23T14:01:19.005Z,14.81
2023-02-23T14:03:54.367Z,14.87
2023-02-23T14:06:26.084Z,14.60
2023-02-23T14:09:00.832Z,14.68
2023-02-23T14:11:31.024Z,14.86
2023-02-23T14:14:01.830Z,14.29
2023-02-23T14:16:29.977Z,14.51
2023-02-23T14:19:10.909Z,14.42
2023-02-23T14:21:46.913Z,14.62
2023-02-23T14:24:19.417Z,14.61
2023-02-23T14:27:12.777Z,14.53
2023-02-23T14:29:41.896Z,14.26
2023-02-23T14:32:31.279Z,13.93
2023-02-23T14:35:00.552Z,14.16
2023-02-23T14:37:33.132Z,14.28
2023-02-23T14:40:14.508Z,14.09
2023-02-23T14:42:47.080Z,14.06
2023-02-23T14:45:20.507Z,14.04
2023-02-23T14:47:52.162Z,13.92
2023-02-23T14:50:27.005Z,14.07
2023-02-23T14:52:57.378Z,13.95
2023-02-23T14:55:29.203Z,13.80
2023-02-23T14:57:58.360Z,13.89
2023-02-23T15:00:28.454Z,14.01
2023-02-23T15:03:00.109Z,13.70
2023-02-23T15:05:30.573Z,13.67
2023-02-23T15:08:07.088Z,13.91
2023-02-23T15:10:39.276Z,13.87
2023-02-23T15:13:11.870Z,13.80
2023-02-23T15:15:45.426Z,13.88
2023-02-23T15:18:22.686Z,13.65
2023-02-23T15:20:51.702Z,13.56
2023-02-23T15:23:21.996Z,13.59
2023-02-23T15:25:51.222Z,13.61
2023-02-23T15:28:25.273Z,13.61
2023-02-23T15:30:54.411Z,13.57
2023-02-23T15:33:28.410Z,13.68
2023-02-23T15:36:03.848Z,13.42
2023-02-23T15:38:43.399Z,13.61
2023-02-23T15:41:23.166Z,13.42
2023-02-23T15:43:51.265Z,13.60
2023-02-23T15:46:24.702Z,13.54
2023-02-23T15:48:54.830Z,13.16
2023-02-23T15:51:33.876Z,13.25
2023-02-23T15:54:07.877Z,13.08
2023-02-23T15:56:36.402Z,13.16
2023-02-23T15:59:12.958Z,13.33
2023-02-23T16:01:44.932Z,13.24
2023-02-23T16:04:19.280Z,13.33
2023-02-23T16:06:53.138Z,13.35
2023-02-23T16:09:30.071Z,13.23
2023-02-23T16:12:03.212Z,13.21
2023-02-23T16:14:36.242Z,13.03
2023-02-23T16:17:11.469Z,13.01
2023-02-23T16:19:41.714Z,13.03
2023-02-23T16:22:21.367Z,13.17
2023-02-23T16:24:58.936Z,13.07
2023-02-23T16:27:28.994Z,13.09
2023-02-23T16:30:00.206Z,13.18
2023-02-23T16:32:36.392Z,12.94
2023-02-23T16:35:15.342Z,13.10
2023-02-23T16:37:59.130Z,13.13
2023-02-23T16:40:28.907Z,13.17
2023-02-23T16:42:59.546Z,13.13
2023-02-23T16:45:29.659Z,13.09
2023-02-23T16:48:02.081Z,13.19
2023-02-23T16:50:30.650Z,12.96
2023-02-23T16:52:58.654Z,13.01
2023-02-23T16:55:29.517Z,12.72
2023-02-23T16:58:00.424Z,12.63
2023-02-23T17:00:30.468Z,12.94
2023-02-23T17:03:00.584Z,12.99
2023-02-23T17:05:30.145Z,12.86
2023-02-23T17:07:59.021Z,13.01
2023-02-23T17:10:32.264Z,12.68
2023-02-23T17:13:04.431Z,12.79
2023-02-23T17:15:34.876Z,12.73
2023-02-23T17:18:02.953Z,12.73
2023-02-23T17:20:32.663Z,12.92
2023-02-23T17:23:02.382Z,12.99
2023-02-23T17:25:31.970Z,12.68
2023-02-23T17:28:01.813Z,12.77
2023-02-23T17:30:30.533Z,12.80
2023-02-23T17:33:00.426Z,12.76
2023-02-23T17:35:33.649Z,12.76
2023-02-23T17:38:01.938Z,12.77
2023-02-23T17:40:34.641Z,12.76
2023-02-23T17:43:04.693Z,12.90
2023-02-23T17:45:32.994Z,12.98
2023-02-23T17:48:00.900Z,12.82
2023-02-23T17:50:29.219Z,12.87
2023-02-23T17:52:57.851Z,12.90
2023-02-23T17:55:26.160Z,12.67
2023-02-23T17:57:55.440Z,12.85
2023-02-23T18:00:25.067Z,12.80
2023-02-23T18:02:53.123Z,12.73
2023-02-23T18:05:21.667Z,12.65
2023-02-23T18:07:49.634Z,12.75
2023-02-23T18:10:17.792Z,12.70
2023-02-23T18:12:46.056Z,12.76
2023-02-23T18:15:15.400Z,12.77
2023-02-23T18:17:43.330Z,12.77
2023-02-23T18:20:15.018Z,12.58
2023-02-23T18:22:43.656Z,12.76
2023-02-23T18:25:21.416Z,12.70
2023-02-23T18:27:53.934Z,12.70
2023-02-23T18:30:24.687Z,12.65
2023-02-23T18:32:53.346Z,12.62
2023-02-23T18:35:21.881Z,12.70
2023-02-23T18:37:49.933Z,12.73
2023-02-23T18:40:24.839Z,12.55
2023-02-23T18:42:52.827Z,12.66
2023-02-23T18:45:20.694Z,12.73
2023-02-23T18:47:50.151Z,12.50
2023-02-23T18:50:19.605Z,12.52
2023-02-23T18:52:48.896Z,12.57
2023-02-23T18:55:16.910Z,12.62
2023-02-23T18:57:45.310Z,12.53
2023-02-23T19:00:15.769Z,12.48
2023-02-23T19:02:46.361Z,12.41
2023-02-23T19:05:20.160Z,12.55
2023-02-23T19:07:49.067Z,12.11
2023-02-23T19:10:17.371Z,12.39
2023-02-23T19:12:45.266Z,12.15
2023-02-23T19:15:13.633Z,12.04
2023-02-23T19:17:41.489Z,12.00
2023-02-23T19:20:13.667Z,12.36
2023-02-23T19:22:43.942Z,12.25
2023-02-23T19:25:14.279Z,12.44
2023-02-23T19:27:42.767Z,12.51
2023-02-23T19:30:11.911Z,12.01
2023-02-23T19:32:40.671Z,12.41
2023-02-23T19:35:14.679Z,12.48
2023-02-23T19:37:51.009Z,12.50
2023-02-23T19:40:22.866Z,12.35
2023-02-23T19:42:52.788Z,12.43
2023-02-23T19:45:21.854Z,12.37
2023-02-23T19:47:52.664Z,12.53
2023-02-23T19:50:20.707Z,12.34
2023-02-23T19:52:50.453Z,12.47
2023-02-23T19:55:20.258Z,12.45
2023-02-23T19:57:48.287Z,12.26
2023-02-23T20:00:16.888Z,12.29
2023-02-23T20:02:44.794Z,12.13
2023-02-23T20:05:14.438Z,12.25
2023-02-23T20:07:43.242Z,11.96
2023-02-23T20:10:16.439Z,11.58
2023-02-23T20:12:44.820Z,11.31
2023-02-23T20:15:14.698Z,11.72
2023-02-23T20:17:42.635Z,11.75
2023-02-23T20:20:12.188Z,11.80
2023-02-23T20:22:41.400Z,11.80
2023-02-23T20:25:16.005Z,11.50
2023-02-23T20:27:45.689Z,11.40
2023-02-23T20:30:14.545Z,11.20
2023-02-23T20:32:42.649Z,11.32
2023-02-23T20:35:13.102Z,11.49
2023-02-23T20:37:41.182Z,11.33
2023-02-23T20:40:16.510Z,11.23
2023-02-23T20:42:47.844Z,11.32
2023-02-23T20:45:17.953Z,11.32
2023-02-23T20:47:46.901Z,11.19
2023-02-23T20:50:15.944Z,11.19
2023-02-23T20:52:45.913Z,11.24
2023-02-23T20:55:18.919Z,11.29
2023-02-23T20:57:49.039Z,11.33
2023-02-23T21:00:22.603Z,11.41
2023-02-23T21:02:55.459Z,11.39
2023-02-23T21:05:25.283Z,11.25
2023-02-23T21:07:53.913Z,11.29
2023-02-23T21:10:21.925Z,10.98
2023-02-23T21:12:53.018Z,11.26
2023-02-23T21:15:20.919Z,11.07
2023-02-23T21:17:50.430Z,10.82
2023-02-23T21:20:20.676Z,10.97
2023-02-23T21:22:50.168Z,10.93
2023-02-23T21:25:19.422Z,11.11
2023-02-23T21:27:47.880Z,10.94
2023-02-23T21:30:19.435Z,10.86
2023-02-23T21:32:48.314Z,11.02
2023-02-23T21:35:16.740Z,10.88
2023-02-23T21:37:44.696Z,10.75
2023-02-23T21:40:17.365Z,10.95
2023-02-23T21:42:45.311Z,10.84
2023-02-23T21:45:14.124Z,10.75
2023-02-23T21:47:45.583Z,10.96
2023-02-23T21:50:15.629Z,10.92
2023-02-23T21:52:45.685Z,10.82
2023-02-23T21:55:21.289Z,10.62
2023-02-23T21:57:50.769Z,10.66
2023-02-23T22:00:19.158Z,10.67
2023-02-23T22:02:48.904Z,10.83
2023-02-23T22:05:18.250Z,10.76
2023-02-23T22:07:49.428Z,10.62
2023-02-23T22:10:18.019Z,10.57
2023-02-23T22:12:45.898Z,10.69
2023-02-23T22:15:15.814Z,10.53
2023-02-23T22:17:44.146Z,10.50
2023-02-23T22:20:14.547Z,10.67
2023-02-23T22:22:42.873Z,10.75
2023-02-23T22:25:11.440Z,10.82
2023-02-23T22:27:41.583Z,10.90
2023-02-23T22:30:12.217Z,10.97
2023-02-23T22:32:40.768Z,10.92
2023-02-23T22:35:09.414Z,11.02
2023-02-23T22:37:39.358Z,10.86
2023-02-23T22:40:13.371Z,10.71
2023-02-23T22:42:43.264Z,10.87
2023-02-23T22:45:12.229Z,10.76
2023-02-23T22:47:40.090Z,10.82
2023-02-23T22:50:12.029Z,11.01
2023-02-23T22:52:43.099Z,10.73
2023-02-23T22:55:13.120Z,10.76
2023-02-23T22:57:41.123Z,10.70
2023-02-23T23:00:12.495Z,10.74
2023-02-23T23:02:40.603Z,10.54
2023-02-23T23:05:09.520Z,10.25
2023-02-23T23:07:37.399Z,10.67
2023-02-23T23:10:09.320Z,10.75
2023-02-23T23:12:37.995Z,10.84
2023-02-23T23:15:14.610Z,10.67
2023-02-23T23:17:48.084Z,10.66
2023-02-23T23:20:17.658Z,10.52
2023-02-23T23:22:45.609Z,10.59
2023-02-23T23:25:15.709Z,10.62
2023-02-23T23:27:45.811Z,10.66
2023-02-23T23:30:15.423Z,10.57
2023-02-23T23:32:43.528Z,10.63
2023-02-23T23:35:13.588Z,10.69
2023-02-23T23:37:41.627Z,10.83
2023-02-23T23:40:14.681Z,10.72
2023-02-23T23:42:46.470Z,10.44
2023-02-23T23:45:16.233Z,10.47
2023-02-23T23:47:45.034Z,10.32
2023-02-23T23:50:14.137Z,10.43
2023-02-23T23:52:44.471Z,10.60
2023-02-23T23:55:14.590Z,10.68
2023-02-23T23:57:44.307Z,10.67
